Time;durP1;ratioP1;P1;durP2;ratioP2;P2;SDS_P1;SDS_P2;PMS_P1;PMS_P2;Temp;Humidity;BMP_temperature;BMP_pressure;BME280_temperature;BME280_humidity;BME280_pressure;Samples;Min_cycle;Max_cycle;Signal;HPM_P1;HPM_P2
2023/10/26 00:00:47;;;;;;;0.00;0.00;;;;;;;17.12;63.81;98320.25;4448179;32;32898;-81
2023/10/26 00:03:15;;;;;;;0.45;0.28;;;;;;;17.05;63.67;98318.31;4474914;32;35007;-80
2023/10/26 00:05:43;;;;;;;0.00;0.00;;;;;;;17.06;63.21;98310.16;4476047;32;34377;-81
2023/10/26 00:08:11;;;;;;;0.00;0.00;;;;;;;16.99;63.29;98301.06;4473879;32;33757;-80
2023/10/26 00:10:39;;;;;;;0.00;0.00;;;;;;;16.89;63.50;98292.25;4462674;32;32835;-81
2023/10/26 00:13:07;;;;;;;0.10;0.10;;;;;;;16.71;63.77;98288.59;4459885;32;34887;-80
2023/10/26 00:15:37;;;;;;;3.03;0.30;;;;;;;16.61;63.60;98292.09;4463683;32;33377;-80
2023/10/26 00:18:05;;;;;;;0.88;0.62;;;;;;;16.48;64.12;98294.25;4459846;32;34013;-80
2023/10/26 00:20:33;;;;;;;0.00;0.00;;;;;;;16.62;63.46;98295.63;4476098;32;34042;-80
2023/10/26 00:23:01;;;;;;;0.00;0.00;;;;;;;16.62;63.57;98292.97;4446694;32;33017;-80
2023/10/26 00:25:30;;;;;;;0.00;0.00;;;;;;;16.56;64.12;98291.69;4474359;32;32822;-80
2023/10/26 00:27:58;;;;;;;0.05;0.05;;;;;;;16.55;64.52;98283.84;4473535;32;34615;-81
2023/10/26 00:30:26;;;;;;;0.65;0.65;;;;;;;16.60;64.37;98277.09;4448341;32;33113;-80
2023/10/26 00:32:54;;;;;;;0.15;0.15;;;;;;;16.76;63.76;98271.25;4448799;32;32702;-80
2023/10/26 00:35:22;;;;;;;0.30;0.30;;;;;;;16.53;65.41;98276.00;4473872;32;33227;-81
2023/10/26 00:37:50;;;;;;;0.10;0.10;;;;;;;16.51;65.40;98267.28;4461956;32;33491;-81
2023/10/26 00:40:18;;;;;;;0.00;0.00;;;;;;;16.55;65.01;98274.03;4475216;32;33637;-81
2023/10/26 00:42:46;;;;;;;0.15;0.15;;;;;;;16.44;65.07;98276.84;4460032;32;34069;-81
2023/10/26 00:45:14;;;;;;;1.20;0.55;;;;;;;16.46;65.27;98268.72;4449217;32;32688;-82
2023/10/26 00:47:42;;;;;;;0.00;0.00;;;;;;;16.33;64.94;98274.31;4474820;32;32528;-81
2023/10/26 00:50:10;;;;;;;0.15;0.10;;;;;;;16.45;64.71;98270.53;4461814;32;33774;-81
2023/10/26 00:52:38;;;;;;;1.08;0.95;;;;;;;16.44;64.59;98271.53;4447794;32;33335;-81
2023/10/26 00:55:06;;;;;;;0.15;0.08;;;;;;;16.43;64.64;98269.00;4470766;32;33361;-81
2023/10/26 00:57:34;;;;;;;0.03;0.03;;;;;;;16.41;64.11;98273.63;4450381;32;35044;-81
2023/10/26 01:00:03;;;;;;;0.00;0.00;;;;;;;16.22;64.82;98271.78;4460048;32;32943;-81
2023/10/26 01:02:31;;;;;;;0.15;0.15;;;;;;;16.11;64.91;98273.63;4460535;32;34860;-80
2023/10/26 01:04:59;;;;;;;0.30;0.28;;;;;;;16.16;64.57;98270.53;4460093;32;33614;-80
2023/10/26 01:07:26;;;;;;;0.00;0.00;;;;;;;16.17;64.43;98263.37;4462006;32;34191;-80
2023/10/26 01:09:55;;;;;;;0.00;0.00;;;;;;;16.06;64.58;98256.37;4447144;32;33975;-80
2023/10/26 01:12:23;;;;;;;0.10;0.10;;;;;;;15.93;64.93;98261.97;4450428;32;33293;-79
2023/10/26 01:14:51;;;;;;;0.00;0.00;;;;;;;15.87;64.60;98267.84;4462280;32;32782;-79
2023/10/26 01:17:19;;;;;;;0.35;0.15;;;;;;;15.85;64.84;98267.12;4457353;32;33989;-79
2023/10/26 01:19:50;;;;;;;3.62;0.75;;;;;;;15.75;65.32;98258.28;4471241;32;33878;-80
2023/10/26 01:22:18;;;;;;;0.20;0.20;;;;;;;15.92;65.15;98249.66;4459851;32;33831;-80
2023/10/26 01:24:46;;;;;;;0.10;0.10;;;;;;;15.76;66.81;98246.66;4473994;32;33695;-79
2023/10/26 01:27:14;;;;;;;0.30;0.30;;;;;;;15.88;66.39;98256.22;4460953;32;33165;-80
2023/10/26 01:29:42;;;;;;;2.05;0.62;;;;;;;15.76;68.31;98249.31;4473015;32;34671;-79
2023/10/26 01:32:09;;;;;;;0.00;0.00;;;;;;;15.97;67.56;98250.06;4470335;32;33728;-79
2023/10/26 01:34:39;;;;;;;0.00;0.00;;;;;;;15.94;67.76;98245.00;4462100;32;33979;-80
2023/10/26 01:37:06;;;;;;;0.70;0.20;;;;;;;16.06;67.44;98245.72;4450024;32;33676;-80
2023/10/26 01:39:34;;;;;;;0.25;0.25;;;;;;;16.10;67.73;98242.66;4458724;32;34657;-79
2023/10/26 01:42:03;;;;;;;0.17;0.17;;;;;;;16.16;67.71;98245.75;4473596;32;33929;-80
2023/10/26 01:44:31;;;;;;;0.20;0.20;;;;;;;16.10;67.89;98242.66;4477748;32;33196;-81
2023/10/26 01:46:59;;;;;;;0.00;0.00;;;;;;;16.06;67.76;98241.25;4460395;32;33849;-80
2023/10/26 01:49:26;;;;;;;0.65;0.47;;;;;;;16.20;67.40;98241.81;4475208;32;33909;-80
2023/10/26 01:51:54;;;;;;;0.17;0.00;;;;;;;16.15;67.58;98249.38;4454818;32;34216;-80
2023/10/26 01:54:22;;;;;;;3.40;0.30;;;;;;;16.05;67.99;98244.06;4462447;32;33630;-80
2023/10/26 01:56:50;;;;;;;3.00;0.75;;;;;;;16.25;67.39;98252.88;4463755;32;34431;-80
2023/10/26 01:59:19;;;;;;;0.05;0.05;;;;;;;16.34;67.14;98244.06;4464052;32;34796;-80
2023/10/26 02:01:48;;;;;;;0.45;0.37;;;;;;;16.34;66.83;98238.72;4473787;32;34132;-80
2023/10/26 02:04:16;;;;;;;0.30;0.20;;;;;;;16.18;67.23;98238.44;4450901;32;32743;-80
2023/10/26 02:06:43;;;;;;;0.10;0.10;;;;;;;16.33;66.66;98237.88;4475134;32;34209;-80
2023/10/26 02:09:13;;;;;;;0.22;0.22;;;;;;;16.34;66.95;98234.25;4448091;32;33958;-81
2023/10/26 02:11:41;;;;;;;0.20;0.20;;;;;;;16.38;66.68;98229.47;4462250;32;33072;-81
2023/10/26 02:14:08;;;;;;;0.00;0.00;;;;;;;16.24;67.25;98229.91;4460208;32;33476;-81
2023/10/26 02:16:36;;;;;;;0.00;0.00;;;;;;;15.88;68.43;98232.25;4460062;32;33352;-81
2023/10/26 02:19:04;;;;;;;0.20;0.20;;;;;;;16.41;66.51;98229.16;4458816;32;33864;-81
2023/10/26 02:21:32;;;;;;;0.00;0.00;;;;;;;16.36;66.32;98220.75;4460602;32;34143;-81
2023/10/26 02:24:01;;;;;;;0.00;0.00;;;;;;;16.36;66.22;98218.09;4472128;32;33374;-80
2023/10/26 02:26:29;;;;;;;0.00;0.00;;;;;;;16.29;66.82;98214.34;4474228;32;32861;-80
2023/10/26 02:28:56;;;;;;;0.00;0.00;;;;;;;16.35;66.45;98213.75;4447584;32;33203;-80
2023/10/26 02:31:24;;;;;;;0.15;0.15;;;;;;;16.37;66.20;98211.78;4470490;32;34786;-80
2023/10/26 02:33:52;;;;;;;0.37;0.37;;;;;;;16.09;67.26;98214.34;4474835;32;33545;-80
2023/10/26 02:36:20;;;;;;;19.27;0.62;;;;;;;16.18;66.72;98211.81;4477796;32;34758;-81
2023/10/26 02:38:48;;;;;;;0.00;0.00;;;;;;;16.19;66.90;98201.03;4450755;32;34581;-80
2023/10/26 02:41:15;;;;;;;0.43;0.43;;;;;;;16.31;66.46;98209.69;4461934;32;34022;-80
2023/10/26 02:43:44;;;;;;;0.55;0.35;;;;;;;16.04;67.34;98213.06;4447727;32;33319;-80
2023/10/26 02:46:13;;;;;;;0.00;0.00;;;;;;;16.22;66.75;98213.22;4453877;32;35462;-80
2023/10/26 02:48:40;;;;;;;0.00;0.00;;;;;;;16.24;66.67;98216.59;4446868;32;34092;-80
2023/10/26 02:51:08;;;;;;;0.00;0.00;;;;;;;16.07;67.48;98205.66;4460555;32;33653;-80
2023/10/26 02:53:36;;;;;;;0.00;0.00;;;;;;;16.15;66.99;98212.09;4448440;32;32370;-80
2023/10/26 02:56:04;;;;;;;0.00;0.00;;;;;;;16.40;65.72;98206.19;4463412;32;34312;-81
2023/10/26 02:58:31;;;;;;;0.20;0.20;;;;;;;16.42;65.74;98204.22;4462975;32;33606;-81
2023/10/26 03:00:59;;;;;;;1.40;0.43;;;;;;;16.40;65.70;98206.19;4461259;32;34205;-81
2023/10/26 03:03:27;;;;;;;0.00;0.00;;;;;;;16.47;65.44;98215.28;4461528;32;34481;-81
2023/10/26 03:05:58;;;;;;;0.30;0.25;;;;;;;16.40;65.59;98214.19;4462508;32;33841;-81
2023/10/26 03:08:26;;;;;;;0.00;0.00;;;;;;;16.77;64.15;98218.78;4458416;32;33635;-81
2023/10/26 03:10:54;;;;;;;0.60;0.60;;;;;;;16.70;64.65;98218.47;4461489;32;33251;-81
2023/10/26 03:13:22;;;;;;;0.30;0.30;;;;;;;16.87;63.81;98215.09;4475432;32;34401;-81
2023/10/26 03:15:51;;;;;;;0.20;0.17;;;;;;;16.69;64.04;98216.78;4474088;32;34730;-82
2023/10/26 03:18:19;;;;;;;1.75;1.27;;;;;;;16.86;63.68;98223.22;4461116;32;32972;-82
2023/10/26 03:20:46;;;;;;;0.20;0.20;;;;;;;16.64;64.12;98219.88;4461553;32;33329;-81
2023/10/26 03:23:15;;;;;;;0.10;0.10;;;;;;;16.54;64.11;98227.06;4476289;32;33897;-82
2023/10/26 03:25:42;;;;;;;0.37;0.37;;;;;;;16.19;65.66;98224.13;4448144;32;32960;-82
2023/10/26 03:28:10;;;;;;;1.17;0.95;;;;;;;16.37;64.33;98222.44;4458651;32;33789;-82
2023/10/26 03:30:38;;;;;;;0.00;0.00;;;;;;;16.30;64.91;98226.66;4450670;32;33410;-81
2023/10/26 03:33:05;;;;;;;0.75;0.75;;;;;;;16.22;64.55;98224.69;4460125;32;34427;-82
2023/10/26 03:35:35;;;;;;;0.00;0.00;;;;;;;16.02;65.72;98228.34;4450866;32;33860;-81
2023/10/26 03:38:03;;;;;;;0.10;0.10;;;;;;;16.24;65.56;98224.56;4462011;32;33541;-83
2023/10/26 03:40:31;;;;;;;0.30;0.30;;;;;;;16.10;66.22;98236.50;4461582;32;33035;-81
2023/10/26 03:42:59;;;;;;;0.00;0.00;;;;;;;16.17;65.54;98234.94;4473010;32;34344;-81
2023/10/26 03:45:28;;;;;;;0.00;0.00;;;;;;;16.44;64.67;98239.56;4451472;32;34225;-81
2023/10/26 03:47:56;;;;;;;0.08;0.08;;;;;;;16.45;64.51;98229.72;4472821;32;34009;-81
2023/10/26 03:50:24;;;;;;;0.00;0.00;;;;;;;16.50;64.40;98228.31;4475990;32;34096;-82
2023/10/26 03:52:52;;;;;;;0.05;0.05;;;;;;;16.27;65.35;98221.62;4471290;32;108063;-81
2023/10/26 03:55:19;;;;;;;0.10;0.10;;;;;;;16.25;65.51;98229.75;4473037;32;33093;-80
2023/10/26 03:57:48;;;;;;;0.70;0.70;;;;;;;16.37;64.74;98223.28;4460661;32;34612;-81
2023/10/26 04:00:16;;;;;;;0.13;0.13;;;;;;;16.36;64.97;98231.41;4461167;32;33467;-80
2023/10/26 04:02:44;;;;;;;13.65;0.62;;;;;;;15.97;65.92;98228.78;4462803;32;33318;-80
2023/10/26 04:05:12;;;;;;;0.52;0.52;;;;;;;15.85;66.51;98237.84;4462211;32;33895;-80
2023/10/26 04:07:40;;;;;;;0.00;0.00;;;;;;;15.98;66.06;98229.59;4461274;32;33663;-81
2023/10/26 04:10:08;;;;;;;0.20;0.20;;;;;;;16.28;64.59;98229.44;4460248;32;33739;-80
2023/10/26 04:12:36;;;;;;;4.57;1.05;;;;;;;16.23;64.11;98225.53;4474286;32;32839;-80
2023/10/26 04:15:04;;;;;;;0.10;0.10;;;;;;;16.05;64.23;98220.94;4464550;32;33701;-81
2023/10/26 04:17:32;;;;;;;0.80;0.70;;;;;;;15.67;65.07;98234.22;4474964;32;34736;-81
2023/10/26 04:20:00;;;;;;;0.32;0.20;;;;;;;15.60;65.70;98228.53;4474788;32;34092;-81
2023/10/26 04:22:28;;;;;;;0.50;0.30;;;;;;;15.73;64.58;98225.66;4446002;32;32811;-81
2023/10/26 04:24:56;;;;;;;0.10;0.10;;;;;;;15.68;64.70;98226.06;4474139;32;33586;-81
2023/10/26 04:27:24;;;;;;;0.37;0.37;;;;;;;15.83;64.33;98231.84;4474053;32;33615;-81
2023/10/26 04:29:52;;;;;;;0.40;0.30;;;;;;;15.86;64.15;98228.91;4460150;32;33204;-78
2023/10/26 04:32:20;;;;;;;0.32;0.32;;;;;;;15.62;64.85;98234.59;4447107;32;32811;-80
2023/10/26 04:34:48;;;;;;;0.20;0.20;;;;;;;15.39;65.25;98231.31;4452477;32;32827;-81
2023/10/26 04:37:15;;;;;;;0.00;0.00;;;;;;;15.56;64.99;98233.28;4471216;32;34123;-80
2023/10/26 04:39:43;;;;;;;0.17;0.17;;;;;;;15.54;65.33;98229.94;4463562;32;34060;-80
2023/10/26 04:42:12;;;;;;;0.10;0.10;;;;;;;15.35;66.01;98236.03;4475320;32;33636;-80
2023/10/26 04:44:41;;;;;;;0.05;0.05;;;;;;;15.28;66.20;98234.03;4472496;32;33810;-80
2023/10/26 04:47:09;;;;;;;0.25;0.25;;;;;;;15.25;66.38;98239.66;4461463;32;33752;-80
2023/10/26 04:49:37;;;;;;;1.55;0.55;;;;;;;15.55;65.27;98231.63;4458480;32;33691;-80
2023/10/26 04:52:05;;;;;;;0.05;0.05;;;;;;;15.30;65.76;98240.09;4448656;32;33026;-80
2023/10/26 04:54:33;;;;;;;0.22;0.15;;;;;;;15.05;66.73;98231.59;4461340;32;33814;-80
2023/10/26 04:57:00;;;;;;;0.65;0.65;;;;;;;15.42;65.52;98233.66;4473176;32;33951;-80
2023/10/26 04:59:28;;;;;;;0.32;0.32;;;;;;;15.30;65.49;98238.28;4462707;32;34101;-81
2023/10/26 05:01:56;;;;;;;1.25;1.15;;;;;;;15.53;65.28;98232.75;4461164;32;32732;-80
2023/10/26 05:04:24;;;;;;;0.30;0.30;;;;;;;15.69;64.82;98234.91;4474085;32;33796;-80
2023/10/26 05:06:51;;;;;;;0.20;0.20;;;;;;;15.24;66.10;98237.94;4470337;32;32161;-80
2023/10/26 05:09:19;;;;;;;0.47;0.45;;;;;;;15.20;66.46;98237.41;4459759;32;32662;-79
2023/10/26 05:11:47;;;;;;;2.65;1.83;;;;;;;15.39;66.44;98235.78;4447117;32;33563;-80
2023/10/26 05:14:15;;;;;;;0.73;0.73;;;;;;;15.55;65.41;98236.94;4472122;32;32998;-80
2023/10/26 05:16:43;;;;;;;0.70;0.70;;;;;;;15.22;66.79;98235.44;4474428;32;33989;-82
2023/10/26 05:19:10;;;;;;;1.20;0.57;;;;;;;15.34;66.54;98233.53;4478441;32;34111;-81
2023/10/26 05:21:38;;;;;;;0.30;0.30;;;;;;;15.25;66.70;98239.66;4461358;32;33118;-81
2023/10/26 05:24:06;;;;;;;0.80;0.80;;;;;;;15.31;66.89;98241.75;4472531;32;33810;-81
2023/10/26 05:26:34;;;;;;;0.55;0.55;;;;;;;15.27;67.41;98243.00;4475627;32;34208;-80
2023/10/26 05:29:03;;;;;;;3.53;1.67;;;;;;;15.29;67.48;98246.41;4469520;32;34854;-80
2023/10/26 05:31:31;;;;;;;2.45;1.42;;;;;;;15.79;65.93;98244.56;4472467;32;31821;-80
2023/10/26 05:33:59;;;;;;;5.93;1.85;;;;;;;15.89;65.25;98239.25;4473309;32;33958;-81
2023/10/26 05:36:27;;;;;;;0.75;0.75;;;;;;;15.78;65.82;98250.03;4458497;32;34342;-82
2023/10/26 05:38:55;;;;;;;5.97;2.20;;;;;;;15.73;66.21;98249.63;4473414;32;34070;-81
2023/10/26 05:41:23;;;;;;;2.65;0.77;;;;;;;15.87;65.81;98246.56;4449586;32;32756;-81
2023/10/26 05:43:50;;;;;;;3.03;2.72;;;;;;;15.81;66.18;98258.59;4448561;32;32400;-80
2023/10/26 05:46:18;;;;;;;1.90;1.12;;;;;;;15.81;65.54;98258.59;4474008;32;33568;-81
2023/10/26 05:48:46;;;;;;;1.58;1.10;;;;;;;15.68;66.41;98257.16;4471148;32;34011;-81
2023/10/26 05:51:14;;;;;;;0.60;0.60;;;;;;;15.46;67.33;98258.19;4458719;32;32246;-81
2023/10/26 05:53:42;;;;;;;0.88;0.88;;;;;;;15.59;67.06;98249.00;4472840;32;33272;-81
2023/10/26 05:56:11;;;;;;;0.50;0.50;;;;;;;15.41;68.01;98255.94;4450177;32;32516;-81
2023/10/26 05:58:38;;;;;;;0.88;0.88;;;;;;;15.42;68.15;98268.25;4460429;32;33778;-81
2023/10/26 06:01:06;;;;;;;0.40;0.40;;;;;;;15.67;67.66;98274.12;4472262;32;34084;-80
2023/10/26 06:03:34;;;;;;;2.37;0.95;;;;;;;15.60;67.93;98282.59;4472106;32;32902;-81
2023/10/26 06:06:02;;;;;;;1.35;0.85;;;;;;;15.78;67.57;98276.66;4463983;32;33566;-81
2023/10/26 06:08:30;;;;;;;0.60;0.60;;;;;;;15.79;67.58;98296.97;4461619;32;33064;-81
2023/10/26 06:10:58;;;;;;;1.35;1.05;;;;;;;15.82;67.87;98296.69;4472107;32;34370;-81
2023/10/26 06:13:26;;;;;;;2.47;1.33;;;;;;;15.79;68.23;98307.59;4448209;32;32942;-81
2023/10/26 06:15:55;;;;;;;1.12;0.65;;;;;;;15.95;67.90;98297.28;4475841;32;34057;-82
2023/10/26 06:18:23;;;;;;;0.40;0.35;;;;;;;16.19;67.31;98304.03;4456983;32;34028;-82
2023/10/26 06:21:00;;;;;;;0.65;0.65;;;;;;;16.30;66.71;98301.25;4472007;32;33671;-82
2023/10/26 06:23:28;;;;;;;0.13;0.13;;;;;;;16.17;67.47;98308.66;4473886;32;33955;-82
2023/10/26 06:26:00;;;;;;;1.40;1.00;;;;;;;16.26;67.32;98311.31;4473141;32;33343;-80
2023/10/26 06:28:28;;;;;;;;;;;;;;;16.42;66.80;98321.41;4472542;32;34497;-80
2023/10/26 06:31:07;;;;;;;0.00;0.00;;;;;;;16.61;66.46;98320.56;4461154;32;32253;-80
2023/10/26 06:33:35;;;;;;;0.00;0.00;;;;;;;16.52;66.48;98321.41;4463396;32;34348;-80
2023/10/26 06:36:02;;;;;;;0.30;0.30;;;;;;;16.50;66.68;98315.41;4462517;32;32782;-80
2023/10/26 06:38:30;;;;;;;0.00;0.00;;;;;;;16.58;66.25;98307.56;4474524;32;34235;-80
2023/10/26 06:40:58;;;;;;;0.88;0.77;;;;;;;16.42;66.71;98310.75;4462384;32;33987;-80
2023/10/26 06:43:26;;;;;;;0.47;0.43;;;;;;;16.49;66.35;98311.91;4471418;32;33788;-80
2023/10/26 06:45:54;;;;;;;0.57;0.57;;;;;;;16.56;66.01;98318.34;4471046;32;33064;-80
2023/10/26 06:48:22;;;;;;;0.20;0.10;;;;;;;16.57;66.25;98314.72;4464249;32;33435;-80
2023/10/26 06:50:58;;;;;;;0.60;0.60;;;;;;;16.56;65.86;98314.84;4470774;32;33515;-80
2023/10/26 06:53:27;;;;;;;0.47;0.47;;;;;;;16.54;66.36;98320.31;4461334;32;35566;-80
2023/10/26 06:55:55;;;;;;;0.10;0.10;;;;;;;16.73;65.30;98316.00;4472102;32;31604;-80
2023/10/26 06:58:23;;;;;;;0.00;0.00;;;;;;;16.81;64.96;98316.13;4462252;32;34932;-82
2023/10/26 07:00:52;;;;;;;0.80;0.73;;;;;;;16.56;65.77;98313.00;4471582;32;33212;-83
2023/10/26 07:03:24;;;;;;;0.55;0.17;;;;;;;16.60;65.41;98309.09;4471619;32;33945;-80
2023/10/26 07:05:52;;;;;;;0.45;0.45;;;;;;;16.68;65.66;98311.06;4456598;32;34353;-80
2023/10/26 07:08:21;;;;;;;0.47;0.47;;;;;;;16.61;65.29;98324.06;4448199;32;33842;-83
2023/10/26 07:10:49;;;;;;;0.40;0.40;;;;;;;16.67;65.38;98329.84;4461410;32;34255;-83
2023/10/26 07:13:17;;;;;;;1.62;0.85;;;;;;;16.57;65.64;98336.03;4462982;32;33187;-82
2023/10/26 07:15:45;;;;;;;0.22;0.22;;;;;;;16.70;65.16;98334.88;4459752;32;36740;-81
2023/10/26 07:18:15;;;;;;;0.85;0.82;;;;;;;16.73;64.86;98334.66;4473861;32;34266;-81
2023/10/26 07:20:43;;;;;;;0.75;0.52;;;;;;;16.69;65.27;98334.03;4471348;32;31724;-81
2023/10/26 07:23:11;;;;;;;0.10;0.10;;;;;;;16.76;65.35;98345.00;4459598;32;32938;-81
2023/10/26 07:25:39;;;;;;;0.43;0.43;;;;;;;16.86;64.91;98336.03;4457466;32;33926;-81
2023/10/26 07:28:07;;;;;;;1.10;0.88;;;;;;;16.94;65.06;98334.47;4458001;32;33029;-82
2023/10/26 07:30:39;;;;;;;0.55;0.43;;;;;;;16.94;64.59;98331.81;4471887;32;33282;-81
2023/10/26 07:33:07;;;;;;;0.40;0.40;;;;;;;16.94;65.10;98329.97;4458448;32;32427;-82
2023/10/26 07:35:40;;;;;;;1.02;0.95;;;;;;;16.75;66.08;98322.00;4483751;31;33940;-81
2023/10/26 07:38:08;;;;;;;1.12;0.75;;;;;;;16.72;66.50;98314.31;4459268;32;34137;-81
2023/10/26 07:41:01;;;;;;;1.52;1.02;;;;;;;16.99;65.21;98333.06;4471588;32;33593;-81
2023/10/26 07:43:29;;;;;;;1.55;0.73;;;;;;;16.97;65.56;98335.03;4472851;32;33626;-81
2023/10/26 07:45:57;;;;;;;1.37;1.25;;;;;;;16.69;65.88;98333.22;4472760;32;32057;-81
2023/10/26 07:48:25;;;;;;;0.40;0.40;;;;;;;16.90;65.35;98339.22;4448614;32;31996;-81
2023/10/26 07:50:53;;;;;;;0.68;0.65;;;;;;;16.99;64.87;98342.88;4457174;32;32459;-82
2023/10/26 07:53:21;;;;;;;1.65;0.95;;;;;;;16.73;66.20;98350.62;4474459;32;33836;-81
2023/10/26 07:55:50;;;;;;;7.22;1.05;;;;;;;16.89;65.93;98345.56;4460521;32;34752;-81
2023/10/26 07:58:18;;;;;;;0.62;0.62;;;;;;;16.67;66.54;98357.34;4460848;32;33789;-81
2023/10/26 08:00:45;;;;;;;0.32;0.32;;;;;;;16.79;66.28;98350.06;4470578;32;33309;-81
2023/10/26 08:03:13;;;;;;;0.62;0.45;;;;;;;16.65;66.70;98360.13;4459196;32;32578;-81
2023/10/26 08:05:41;;;;;;;0.40;0.40;;;;;;;16.85;65.79;98371.69;4460545;32;33591;-81
2023/10/26 08:08:09;;;;;;;0.00;0.00;;;;;;;17.15;64.88;98362.66;4462385;32;33397;-81
2023/10/26 08:10:37;;;;;;;3.40;0.73;;;;;;;17.05;64.89;98356.50;4459486;32;33640;-82
2023/10/26 08:13:05;;;;;;;0.47;0.47;;;;;;;17.14;64.73;98352.97;4458808;32;32867;-81
2023/10/26 08:15:34;;;;;;;1.12;0.75;;;;;;;17.20;64.35;98353.38;4473013;32;33607;-81
2023/10/26 08:18:25;;;;;;;0.55;0.55;;;;;;;17.25;64.31;98365.28;4461242;32;32327;-81
2023/10/26 08:20:53;;;;;;;0.43;0.40;;;;;;;17.19;64.13;98367.72;4460837;32;34273;-81
2023/10/26 08:23:21;;;;;;;0.73;0.73;;;;;;;17.29;64.15;98380.03;4460271;32;33788;-81
2023/10/26 08:25:49;;;;;;;0.60;0.60;;;;;;;17.06;64.73;98387.50;4472328;32;31998;-81
2023/10/26 08:28:16;;;;;;;3.28;0.40;;;;;;;17.44;63.56;98382.25;4456073;32;34949;-81
2023/10/26 08:30:44;;;;;;;0.62;0.62;;;;;;;17.20;64.33;98374.72;4464862;32;33602;-82
2023/10/26 08:33:12;;;;;;;1.12;1.08;;;;;;;17.34;64.27;98382.28;4450728;32;32894;-81
2023/10/26 08:35:48;;;;;;;0.65;0.62;;;;;;;17.35;64.21;98378.59;4469352;32;33299;-81
2023/10/26 08:38:16;;;;;;;7.75;0.60;;;;;;;17.52;63.76;98380.53;4458731;32;34923;-81
2023/10/26 08:40:51;;;;;;;0.50;0.40;;;;;;;17.59;63.75;98365.59;4459532;32;33744;-81
2023/10/26 08:43:20;;;;;;;1.33;1.23;;;;;;;17.64;63.95;98371.34;4467699;32;32849;-81
2023/10/26 08:45:48;;;;;;;8.95;0.70;;;;;;;17.64;63.91;98368.66;4459342;32;34715;-81
2023/10/26 08:48:18;;;;;;;1.30;0.28;;;;;;;17.84;62.90;98371.28;4460504;32;33048;-81
2023/10/26 08:50:47;;;;;;;0.68;0.47;;;;;;;17.74;63.28;98367.81;4460341;32;34389;-81
2023/10/26 08:53:15;;;;;;;2.17;1.27;;;;;;;17.94;62.86;98373.91;4462542;31;32739;-82
2023/10/26 08:55:43;;;;;;;0.77;0.37;;;;;;;17.86;62.75;98367.50;4461315;32;33143;-81
2023/10/26 08:58:11;;;;;;;0.60;0.60;;;;;;;17.88;63.29;98367.34;4458934;32;33234;-81
2023/10/26 09:00:40;;;;;;;0.45;0.45;;;;;;;18.26;62.19;98365.44;4473073;32;33848;-82
2023/10/26 09:03:08;;;;;;;0.28;0.28;;;;;;;18.11;61.69;98371.28;4476643;32;34677;-82
2023/10/26 09:05:53;;;;;;;0.90;0.90;;;;;;;17.99;62.58;98379.66;4463067;32;33001;-81
2023/10/26 09:08:28;;;;;;;7.87;1.65;;;;;;;17.95;62.50;98375.63;4452332;32;33026;-83
2023/10/26 09:10:56;;;;;;;1.30;0.88;;;;;;;18.31;61.92;98381.84;4464158;32;32986;-81
2023/10/26 09:13:26;;;;;;;0.20;0.20;;;;;;;18.32;61.51;98384.38;4472075;32;33529;-81
2023/10/26 09:15:59;;;;;;;2.58;1.27;;;;;;;18.62;60.42;98379.69;4465030;32;33005;-81
2023/10/26 09:18:27;;;;;;;0.32;0.32;;;;;;;18.41;61.53;98390.66;4450829;32;33931;-82
2023/10/26 09:21:08;;;;;;;0.20;0.20;;;;;;;18.49;61.09;98384.56;4472914;32;33649;-82
2023/10/26 09:23:37;;;;;;;0.43;0.43;;;;;;;18.53;61.11;98400.16;4460971;32;33606;-81
2023/10/26 09:26:10;;;;;;;3.45;1.15;;;;;;;18.86;60.16;98387.13;4462894;32;33832;-82
2023/10/26 09:28:52;;;;;;;12.85;0.50;;;;;;;18.94;60.00;98389.84;4464486;32;33430;-82
2023/10/26 09:31:21;;;;;;;0.77;0.60;;;;;;;18.83;60.20;98390.94;4464839;32;33037;-82
2023/10/26 09:33:49;;;;;;;1.17;0.75;;;;;;;18.98;59.54;98398.41;4474322;32;32622;-82
2023/10/26 09:36:19;;;;;;;1.40;1.12;;;;;;;18.60;59.17;98401.19;4460230;32;34278;-81
2023/10/26 09:38:47;;;;;;;2.33;2.12;;;;;;;18.76;59.40;98400.56;4472950;32;33800;-81
2023/10/26 09:41:17;;;;;;;0.77;0.77;;;;;;;18.80;59.49;98409.09;4448045;32;31729;-82
2023/10/26 09:43:45;;;;;;;0.73;0.73;;;;;;;19.24;57.86;98398.47;4451550;32;34021;-82
2023/10/26 09:46:14;;;;;;;0.22;0.22;;;;;;;19.16;57.88;98394.72;4472078;32;33183;-82
2023/10/26 09:48:42;;;;;;;1.35;1.25;;;;;;;19.11;58.12;98398.84;4474477;32;32474;-82
2023/10/26 09:51:10;;;;;;;2.55;0.47;;;;;;;19.30;57.84;98382.59;4461185;32;32527;-81
2023/10/26 09:53:40;;;;;;;0.60;0.50;;;;;;;19.56;56.36;98379.06;4451289;32;33084;-82
2023/10/26 09:56:19;;;;;;;1.08;0.82;;;;;;;19.58;56.33;98377.94;4461993;32;34554;-82
2023/10/26 09:58:46;;;;;;;1.75;0.57;;;;;;;19.44;57.20;98381.19;4475606;32;34200;-82
2023/10/26 10:01:33;;;;;;;3.97;1.35;;;;;;;19.64;57.33;98382.69;4471721;32;32877;-81
2023/10/26 10:04:04;;;;;;;0.75;0.68;;;;;;;19.47;58.02;98375.53;4477524;32;34297;-83
2023/10/26 10:06:50;;;;;;;1.55;0.90;;;;;;;19.58;57.31;98374.41;4471289;32;32312;-81
2023/10/26 10:09:24;;;;;;;1.62;1.52;;;;;;;19.73;57.20;98374.69;4475893;32;32063;-81
2023/10/26 10:12:03;;;;;;;0.80;0.70;;;;;;;19.76;56.79;98369.03;4449510;32;33205;-81
2023/10/26 10:14:47;;;;;;;1.35;0.93;;;;;;;19.78;56.24;98356.31;4461664;32;32892;-81
2023/10/26 10:17:15;;;;;;;0.60;0.60;;;;;;;20.04;56.74;98357.09;4476340;32;32177;-82
2023/10/26 10:19:47;;;;;;;1.35;0.85;;;;;;;20.15;54.88;98355.94;4459185;32;34298;-82
2023/10/26 10:22:39;;;;;;;1.92;1.02;;;;;;;20.65;53.01;98355.94;4462283;32;33046;-82
2023/10/26 10:25:13;;;;;;;;;;;;;;;21.07;52.17;98348.69;4471934;32;33991;-81
2023/10/26 10:28:00;;;;;;;0.57;0.45;;;;;;;21.22;52.02;98347.87;4449044;32;33856;-82
2023/10/26 10:30:30;;;;;;;2.00;1.08;;;;;;;21.08;49.95;98339.63;4475173;32;34207;-81
2023/10/26 10:32:58;;;;;;;1.83;1.62;;;;;;;21.39;50.31;98343.31;4462893;32;33008;-82
2023/10/26 10:35:45;;;;;;;0.88;0.80;;;;;;;21.54;49.05;98335.38;4450681;32;34027;-83
2023/10/26 10:38:13;;;;;;;3.42;2.37;;;;;;;21.33;50.22;98341.34;4461433;32;32617;-83
2023/10/26 10:40:54;;;;;;;0.62;0.43;;;;;;;21.38;50.91;98343.50;4477743;32;33153;-83
2023/10/26 10:43:52;;;;;;;3.33;1.05;;;;;;;21.42;50.30;98345.69;4473537;32;32603;-82
2023/10/26 10:46:20;;;;;;;0.75;0.75;;;;;;;21.24;49.31;98342.31;4449950;32;33964;-82
2023/10/26 10:49:08;;;;;;;0.32;0.32;;;;;;;20.98;49.57;98345.19;4476498;32;34576;-83
2023/10/26 10:51:39;;;;;;;2.42;1.27;;;;;;;20.88;49.98;98333.78;4450396;32;31981;-83
2023/10/26 10:54:12;;;;;;;0.10;0.10;;;;;;;21.07;48.67;98327.22;4459007;32;32487;-83
2023/10/26 10:57:04;;;;;;;0.52;0.52;;;;;;;21.24;48.39;98334.25;4463059;32;33892;-84
2023/10/26 10:59:32;;;;;;;;;;;;;;;20.98;49.30;98331.75;4474519;32;33597;-83
2023/10/26 11:02:06;;;;;;;0.10;0.10;;;;;;;21.18;49.70;98345.69;4459672;32;34144;-84
2023/10/26 11:04:34;;;;;;;0.47;0.47;;;;;;;21.67;44.53;98327.62;4473001;32;33549;-84
2023/10/26 11:07:17;;;;;;;0.17;0.10;;;;;;;21.11;46.43;98334.78;4463294;31;32874;-84
2023/10/26 11:09:46;;;;;;;0.08;0.08;;;;;;;21.27;43.70;98331.25;4478676;32;34068;-84
2023/10/26 11:12:14;;;;;;;0.82;0.65;;;;;;;21.07;43.01;98332.59;4446285;32;34230;-84
2023/10/26 11:14:49;;;;;;;0.43;0.43;;;;;;;21.73;43.82;98326.09;4446945;32;32332;-84
2023/10/26 11:17:19;;;;;;;0.25;0.25;;;;;;;22.41;40.71;98311.19;4472587;32;33823;-84
2023/10/26 11:19:51;;;;;;;0.00;0.00;;;;;;;22.65;40.80;98308.31;4459577;32;32814;-81
2023/10/26 11:22:26;;;;;;;0.65;0.65;;;;;;;22.60;41.64;98317.91;4450554;32;33312;-83
2023/10/26 11:24:54;;;;;;;0.00;0.00;;;;;;;22.24;42.93;98310.44;4461735;32;33496;-82
2023/10/26 11:27:22;;;;;;;0.20;0.20;;;;;;;22.64;40.08;98300.38;4471125;32;35802;-82
2023/10/26 11:30:01;;;;;;;0.00;0.00;;;;;;;22.72;38.97;98303.84;4459030;32;32967;-82
2023/10/26 11:32:42;;;;;;;0.73;0.73;;;;;;;22.59;39.42;98303.63;4450896;32;33072;-82
2023/10/26 11:35:13;;;;;;;0.10;0.10;;;;;;;22.24;42.11;98310.44;4460192;32;32805;-82
2023/10/26 11:37:45;;;;;;;0.00;0.00;;;;;;;22.45;41.03;98304.41;4450345;32;33959;-82
2023/10/26 11:40:14;;;;;;;2.65;0.90;;;;;;;22.83;40.47;98293.66;4462704;32;34211;-82
2023/10/26 11:42:45;;;;;;;0.30;0.30;;;;;;;22.81;40.17;98307.31;4457400;32;33420;-82
2023/10/26 11:45:15;;;;;;;0.57;0.55;;;;;;;22.65;39.89;98302.91;4461862;32;33622;-83